sensor_id;sensor_type;location;lat;lon;timestamp;temperature;humidity
43015;DHT22;28637;50.554;7.032;2023-04-15T00:03:53;4.30;99.90
43015;DHT22;28637;50.554;7.032;2023-04-15T00:08:53;4.30;99.90
43015;DHT22;28637;50.554;7.032;2023-04-15T00:13:55;4.40;99.90
43015;DHT22;28637;50.554;7.032;2023-04-15T00:18:55;4.30;99.90
43015;DHT22;28637;50.554;7.032;2023-04-15T00:23:56;4.40;99.90
43015;DHT22;28637;50.554;7.032;2023-04-15T00:28:56;4.20;99.90
43015;DHT22;28637;50.554;7.032;2023-04-15T00:33:57;4.10;99.90
43015;DHT22;28637;50.554;7.032;2023-04-15T00:38:59;4.10;99.90
43015;DHT22;28637;50.554;7.032;2023-04-15T00:44:00;4.10;99.90
43015;DHT22;28637;50.554;7.032;2023-04-15T00:49:03;4.10;99.90
43015;DHT22;28637;50.554;7.032;2023-04-15T00:54:04;4.00;99.90
43015;DHT22;28637;50.554;7.032;2023-04-15T00:59:05;4.00;99.90
43015;DHT22;28637;50.554;7.032;2023-04-15T01:04:07;3.90;99.90
43015;DHT22;28637;50.554;7.032;2023-04-15T01:09:09;3.90;99.90
43015;DHT22;28637;50.554;7.032;2023-04-15T01:14:11;4.00;99.90
43015;DHT22;28637;50.554;7.032;2023-04-15T01:19:13;4.10;99.90
43015;DHT22;28637;50.554;7.032;2023-04-15T01:24:17;4.10;99.90
43015;DHT22;28637;50.554;7.032;2023-04-15T01:29:18;4.00;99.90
43015;DHT22;28637;50.554;7.032;2023-04-15T01:34:19;4.00;99.90
43015;DHT22;28637;50.554;7.032;2023-04-15T01:39:20;4.00;99.90
43015;DHT22;28637;50.554;7.032;2023-04-15T01:44:21;3.90;99.90
43015;DHT22;28637;50.554;7.032;2023-04-15T01:49:22;3.90;99.90
43015;DHT22;28637;50.554;7.032;2023-04-15T01:54:22;3.80;99.90
43015;DHT22;28637;50.554;7.032;2023-04-15T01:59:23;3.90;99.90
43015;DHT22;28637;50.554;7.032;2023-04-15T02:04:23;3.90;99.90
43015;DHT22;28637;50.554;7.032;2023-04-15T02:09:24;3.70;99.90
43015;DHT22;28637;50.554;7.032;2023-04-15T02:14:25;3.60;99.90
43015;DHT22;28637;50.554;7.032;2023-04-15T02:19:26;3.60;99.90
43015;DHT22;28637;50.554;7.032;2023-04-15T02:24:28;3.60;99.90
43015;DHT22;28637;50.554;7.032;2023-04-15T02:29:30;3.40;99.90
43015;DHT22;28637;50.554;7.032;2023-04-15T02:34:32;3.20;99.90
43015;DHT22;28637;50.554;7.032;2023-04-15T02:39:33;3.20;99.90
43015;DHT22;28637;50.554;7.032;2023-04-15T02:44:34;3.00;99.90
43015;DHT22;28637;50.554;7.032;2023-04-15T02:49:35;3.00;99.90
43015;DHT22;28637;50.554;7.032;2023-04-15T02:54:36;3.00;99.90
43015;DHT22;28637;50.554;7.032;2023-04-15T02:59:37;3.00;99.90
43015;DHT22;28637;50.554;7.032;2023-04-15T03:04:38;3.00;99.90
43015;DHT22;28637;50.554;7.032;2023-04-15T03:09:39;3.00;99.90
43015;DHT22;28637;50.554;7.032;2023-04-15T03:14:40;3.00;99.90
43015;DHT22;28637;50.554;7.032;2023-04-15T03:19:41;3.00;99.90
43015;DHT22;28637;50.554;7.032;2023-04-15T03:24:41;2.90;99.90
43015;DHT22;28637;50.554;7.032;2023-04-15T03:29:42;2.90;99.90
43015;DHT22;28637;50.554;7.032;2023-04-15T03:34:43;2.90;99.90
43015;DHT22;28637;50.554;7.032;2023-04-15T03:39:44;2.70;99.90
43015;DHT22;28637;50.554;7.032;2023-04-15T03:44:44;2.70;99.90
43015;DHT22;28637;50.554;7.032;2023-04-15T03:49:45;2.70;99.90
43015;DHT22;28637;50.554;7.032;2023-04-15T03:54:46;2.70;99.90
43015;DHT22;28637;50.554;7.032;2023-04-15T03:59:47;2.70;99.90
43015;DHT22;28637;50.554;7.032;2023-04-15T04:04:47;2.60;99.90
43015;DHT22;28637;50.554;7.032;2023-04-15T04:09:48;2.60;99.90
43015;DHT22;28637;50.554;7.032;2023-04-15T04:14:49;2.60;99.90
43015;DHT22;28637;50.554;7.032;2023-04-15T04:19:49;2.60;99.90
43015;DHT22;28637;50.554;7.032;2023-04-15T04:24:50;2.50;99.90
43015;DHT22;28637;50.554;7.032;2023-04-15T04:29:51;2.60;99.90
43015;DHT22;28637;50.554;7.032;2023-04-15T04:34:51;2.50;99.90
43015;DHT22;28637;50.554;7.032;2023-04-15T04:39:52;2.50;99.90
43015;DHT22;28637;50.554;7.032;2023-04-15T04:44:53;2.60;99.90
43015;DHT22;28637;50.554;7.032;2023-04-15T04:49:54;2.60;99.90
43015;DHT22;28637;50.554;7.032;2023-04-15T04:54:54;2.60;99.90
43015;DHT22;28637;50.554;7.032;2023-04-15T04:59:55;2.50;99.90
43015;DHT22;28637;50.554;7.032;2023-04-15T05:04:56;2.40;99.90
43015;DHT22;28637;50.554;7.032;2023-04-15T05:09:56;2.60;99.90
43015;DHT22;28637;50.554;7.032;2023-04-15T05:14:57;2.50;99.90
43015;DHT22;28637;50.554;7.032;2023-04-15T05:19:58;2.60;99.90
43015;DHT22;28637;50.554;7.032;2023-04-15T05:24:58;2.70;99.90
43015;DHT22;28637;50.554;7.032;2023-04-15T05:29:59;2.80;99.90
43015;DHT22;28637;50.554;7.032;2023-04-15T05:35:00;2.80;99.90
43015;DHT22;28637;50.554;7.032;2023-04-15T05:40:01;2.90;99.90
43015;DHT22;28637;50.554;7.032;2023-04-15T05:45:02;3.00;99.90
43015;DHT22;28637;50.554;7.032;2023-04-15T05:50:05;3.10;99.90
43015;DHT22;28637;50.554;7.032;2023-04-15T05:55:06;3.10;99.90
43015;DHT22;28637;50.554;7.032;2023-04-15T06:00:07;3.10;99.90
43015;DHT22;28637;50.554;7.032;2023-04-15T06:05:08;3.20;99.90
43015;DHT22;28637;50.554;7.032;2023-04-15T06:10:10;3.50;99.90
43015;DHT22;28637;50.554;7.032;2023-04-15T06:15:10;3.80;99.90
43015;DHT22;28637;50.554;7.032;2023-04-15T06:20:11;4.00;99.90
43015;DHT22;28637;50.554;7.032;2023-04-15T06:25:12;4.40;99.90
43015;DHT22;28637;50.554;7.032;2023-04-15T06:30:13;4.70;99.90
43015;DHT22;28637;50.554;7.032;2023-04-15T06:35:14;5.10;99.90
43015;DHT22;28637;50.554;7.032;2023-04-15T06:40:15;5.40;99.90
43015;DHT22;28637;50.554;7.032;2023-04-15T06:45:16;5.60;99.90
43015;DHT22;28637;50.554;7.032;2023-04-15T06:50:17;5.80;99.90
43015;DHT22;28637;50.554;7.032;2023-04-15T06:55:18;6.00;99.90
43015;DHT22;28637;50.554;7.032;2023-04-15T07:00:18;6.10;99.90
43015;DHT22;28637;50.554;7.032;2023-04-15T07:05:19;6.30;99.90
43015;DHT22;28637;50.554;7.032;2023-04-15T07:10:20;6.20;99.90
43015;DHT22;28637;50.554;7.032;2023-04-15T07:15:21;6.30;99.90
43015;DHT22;28637;50.554;7.032;2023-04-15T07:20:22;6.50;99.90
43015;DHT22;28637;50.554;7.032;2023-04-15T07:25:23;6.80;99.90
43015;DHT22;28637;50.554;7.032;2023-04-15T07:30:24;7.10;99.90
43015;DHT22;28637;50.554;7.032;2023-04-15T07:35:25;7.20;99.90
43015;DHT22;28637;50.554;7.032;2023-04-15T07:40:26;7.30;99.90
43015;DHT22;28637;50.554;7.032;2023-04-15T07:45:27;7.40;99.90
43015;DHT22;28637;50.554;7.032;2023-04-15T07:50:28;7.80;99.90
43015;DHT22;28637;50.554;7.032;2023-04-15T07:55:28;8.30;99.90
43015;DHT22;28637;50.554;7.032;2023-04-15T08:00:30;8.60;99.90
43015;DHT22;28637;50.554;7.032;2023-04-15T08:05:31;9.00;99.90
43015;DHT22;28637;50.554;7.032;2023-04-15T08:10:32;9.30;99.90
43015;DHT22;28637;50.554;7.032;2023-04-15T08:15:33;9.70;99.90
43015;DHT22;28637;50.554;7.032;2023-04-15T08:20:33;10.00;99.90
43015;DHT22;28637;50.554;7.032;2023-04-15T08:25:34;10.20;99.90
43015;DHT22;28637;50.554;7.032;2023-04-15T08:30:35;10.40;99.90
43015;DHT22;28637;50.554;7.032;2023-04-15T08:35:36;10.70;99.90
43015;DHT22;28637;50.554;7.032;2023-04-15T08:40:41;10.90;99.90
43015;DHT22;28637;50.554;7.032;2023-04-15T08:45:43;11.20;99.90
43015;DHT22;28637;50.554;7.032;2023-04-15T08:50:45;11.40;99.90
43015;DHT22;28637;50.554;7.032;2023-04-15T08:55:50;11.40;99.90
43015;DHT22;28637;50.554;7.032;2023-04-15T09:00:52;11.50;99.90
43015;DHT22;28637;50.554;7.032;2023-04-15T09:05:53;11.60;99.90
43015;DHT22;28637;50.554;7.032;2023-04-15T09:10:54;11.70;99.90
43015;DHT22;28637;50.554;7.032;2023-04-15T09:15:55;11.80;99.90
43015;DHT22;28637;50.554;7.032;2023-04-15T09:21:11;11.70;99.90
43015;DHT22;28637;50.554;7.032;2023-04-15T09:26:12;11.70;99.90
43015;DHT22;28637;50.554;7.032;2023-04-15T09:31:18;11.80;99.90
43015;DHT22;28637;50.554;7.032;2023-04-15T09:36:28;12.10;99.90
43015;DHT22;28637;50.554;7.032;2023-04-15T09:41:29;12.70;99.90
43015;DHT22;28637;50.554;7.032;2023-04-15T09:46:40;12.90;99.90
43015;DHT22;28637;50.554;7.032;2023-04-15T09:51:41;12.90;99.90
43015;DHT22;28637;50.554;7.032;2023-04-15T09:56:42;12.90;99.90
43015;DHT22;28637;50.554;7.032;2023-04-15T10:01:43;12.90;99.90
43015;DHT22;28637;50.554;7.032;2023-04-15T10:06:44;13.00;99.90
43015;DHT22;28637;50.554;7.032;2023-04-15T10:11:54;13.10;99.90
43015;DHT22;28637;50.554;7.032;2023-04-15T10:16:55;13.30;99.90
43015;DHT22;28637;50.554;7.032;2023-04-15T10:21:58;13.30;99.90
43015;DHT22;28637;50.554;7.032;2023-04-15T10:26:59;13.40;99.90
43015;DHT22;28637;50.554;7.032;2023-04-15T10:32:02;13.60;99.90
43015;DHT22;28637;50.554;7.032;2023-04-15T10:37:03;13.80;99.90
43015;DHT22;28637;50.554;7.032;2023-04-15T10:42:18;13.70;99.90
43015;DHT22;28637;50.554;7.032;2023-04-15T10:47:20;13.70;99.90
43015;DHT22;28637;50.554;7.032;2023-04-15T10:52:24;13.90;99.90
43015;DHT22;28637;50.554;7.032;2023-04-15T10:57:34;14.10;99.90
43015;DHT22;28637;50.554;7.032;2023-04-15T11:02:56;15.10;99.90
43015;DHT22;28637;50.554;7.032;2023-04-15T11:07:57;15.20;97.10
43015;DHT22;28637;50.554;7.032;2023-04-15T11:13:24;15.60;96.80
43015;DHT22;28637;50.554;7.032;2023-04-15T11:18:28;16.10;94.00
43015;DHT22;28637;50.554;7.032;2023-04-15T11:23:42;15.80;94.10
43015;DHT22;28637;50.554;7.032;2023-04-15T11:28:46;15.60;94.70
43015;DHT22;28637;50.554;7.032;2023-04-15T11:34:07;15.40;94.50
43015;DHT22;28637;50.554;7.032;2023-04-15T11:39:07;15.20;96.20
43015;DHT22;28637;50.554;7.032;2023-04-15T11:44:17;14.90;95.10
43015;DHT22;28637;50.554;7.032;2023-04-15T11:49:28;14.80;96.60
43015;DHT22;28637;50.554;7.032;2023-04-15T11:54:34;14.50;96.70
43015;DHT22;28637;50.554;7.032;2023-04-15T11:59:43;14.30;98.60
43015;DHT22;28637;50.554;7.032;2023-04-15T12:04:44;14.30;98.70
43015;DHT22;28637;50.554;7.032;2023-04-15T12:09:54;14.30;99.00
43015;DHT22;28637;50.554;7.032;2023-04-15T12:14:55;14.50;99.90
43015;DHT22;28637;50.554;7.032;2023-04-15T12:19:56;14.70;99.50
43015;DHT22;28637;50.554;7.032;2023-04-15T12:24:57;14.30;99.90
43015;DHT22;28637;50.554;7.032;2023-04-15T12:30:04;14.10;99.90
43015;DHT22;28637;50.554;7.032;2023-04-15T12:35:05;13.90;99.90
43015;DHT22;28637;50.554;7.032;2023-04-15T12:40:07;14.00;99.90
43015;DHT22;28637;50.554;7.032;2023-04-15T12:45:08;13.90;99.90
43015;DHT22;28637;50.554;7.032;2023-04-15T12:50:09;13.80;99.90
43015;DHT22;28637;50.554;7.032;2023-04-15T12:55:10;13.80;99.90
43015;DHT22;28637;50.554;7.032;2023-04-15T13:00:11;13.80;99.90
43015;DHT22;28637;50.554;7.032;2023-04-15T13:05:12;13.70;99.90
43015;DHT22;28637;50.554;7.032;2023-04-15T13:10:15;13.40;99.90
43015;DHT22;28637;50.554;7.032;2023-04-15T13:15:16;13.40;99.90
43015;DHT22;28637;50.554;7.032;2023-04-15T13:20:20;13.30;99.90
43015;DHT22;28637;50.554;7.032;2023-04-15T13:25:20;13.10;99.90
43015;DHT22;28637;50.554;7.032;2023-04-15T13:30:22;12.90;99.90
43015;DHT22;28637;50.554;7.032;2023-04-15T13:35:23;13.10;99.90
43015;DHT22;28637;50.554;7.032;2023-04-15T13:40:24;13.10;99.90
43015;DHT22;28637;50.554;7.032;2023-04-15T13:45:25;12.80;99.90
43015;DHT22;28637;50.554;7.032;2023-04-15T13:50:27;12.50;99.90
43015;DHT22;28637;50.554;7.032;2023-04-15T13:55:27;12.40;99.90
43015;DHT22;28637;50.554;7.032;2023-04-15T14:00:28;12.20;99.90
43015;DHT22;28637;50.554;7.032;2023-04-15T14:05:29;12.10;99.90
43015;DHT22;28637;50.554;7.032;2023-04-15T14:10:30;11.90;99.90
43015;DHT22;28637;50.554;7.032;2023-04-15T14:15:31;11.90;99.90
43015;DHT22;28637;50.554;7.032;2023-04-15T14:20:31;11.90;99.90
43015;DHT22;28637;50.554;7.032;2023-04-15T14:25:32;11.70;99.90
43015;DHT22;28637;50.554;7.032;2023-04-15T14:30:33;11.60;99.90
43015;DHT22;28637;50.554;7.032;2023-04-15T14:35:33;11.60;99.90
43015;DHT22;28637;50.554;7.032;2023-04-15T14:40:34;11.40;99.90
43015;DHT22;28637;50.554;7.032;2023-04-15T14:45:36;11.40;99.90
43015;DHT22;28637;50.554;7.032;2023-04-15T14:50:37;11.20;99.90
43015;DHT22;28637;50.554;7.032;2023-04-15T14:55:38;11.20;99.90
43015;DHT22;28637;50.554;7.032;2023-04-15T15:00:39;11.20;99.90
43015;DHT22;28637;50.554;7.032;2023-04-15T15:05:45;11.20;99.90
43015;DHT22;28637;50.554;7.032;2023-04-15T15:10:46;11.20;99.90
43015;DHT22;28637;50.554;7.032;2023-04-15T15:15:46;11.20;99.90
43015;DHT22;28637;50.554;7.032;2023-04-15T15:20:48;11.10;99.90
43015;DHT22;28637;50.554;7.032;2023-04-15T15:25:49;11.10;99.90
43015;DHT22;28637;50.554;7.032;2023-04-15T15:30:50;11.00;99.90
43015;DHT22;28637;50.554;7.032;2023-04-15T15:35:50;11.10;99.90
43015;DHT22;28637;50.554;7.032;2023-04-15T15:40:51;11.00;99.90
43015;DHT22;28637;50.554;7.032;2023-04-15T15:45:52;11.00;99.90
43015;DHT22;28637;50.554;7.032;2023-04-15T15:50:54;10.90;99.90
43015;DHT22;28637;50.554;7.032;2023-04-15T15:55:55;10.90;99.90
43015;DHT22;28637;50.554;7.032;2023-04-15T16:00:56;11.10;99.90
43015;DHT22;28637;50.554;7.032;2023-04-15T16:05:57;11.20;99.90
43015;DHT22;28637;50.554;7.032;2023-04-15T16:10:57;11.30;99.90
43015;DHT22;28637;50.554;7.032;2023-04-15T16:15:58;11.50;99.90
43015;DHT22;28637;50.554;7.032;2023-04-15T16:20:58;11.60;99.90
43015;DHT22;28637;50.554;7.032;2023-04-15T16:25:59;11.60;99.90
43015;DHT22;28637;50.554;7.032;2023-04-15T16:31:00;11.40;99.90
43015;DHT22;28637;50.554;7.032;2023-04-15T16:36:01;11.20;99.90
43015;DHT22;28637;50.554;7.032;2023-04-15T16:41:01;10.90;99.90
43015;DHT22;28637;50.554;7.032;2023-04-15T16:46:02;10.70;99.90
43015;DHT22;28637;50.554;7.032;2023-04-15T16:51:02;10.60;99.90
43015;DHT22;28637;50.554;7.032;2023-04-15T16:56:03;10.50;99.90
43015;DHT22;28637;50.554;7.032;2023-04-15T17:01:04;10.30;99.90
43015;DHT22;28637;50.554;7.032;2023-04-15T17:06:05;10.30;99.90
43015;DHT22;28637;50.554;7.032;2023-04-15T17:11:05;10.30;99.90
43015;DHT22;28637;50.554;7.032;2023-04-15T17:16:06;10.30;99.90
43015;DHT22;28637;50.554;7.032;2023-04-15T17:21:07;10.20;99.90
43015;DHT22;28637;50.554;7.032;2023-04-15T17:26:07;10.10;99.90
43015;DHT22;28637;50.554;7.032;2023-04-15T17:31:08;10.00;99.90
43015;DHT22;28637;50.554;7.032;2023-04-15T17:36:09;10.20;99.90
43015;DHT22;28637;50.554;7.032;2023-04-15T17:41:09;10.40;99.90
43015;DHT22;28637;50.554;7.032;2023-04-15T17:46:10;10.50;99.90
43015;DHT22;28637;50.554;7.032;2023-04-15T17:51:12;10.30;99.90
43015;DHT22;28637;50.554;7.032;2023-04-15T17:56:13;10.20;99.90
43015;DHT22;28637;50.554;7.032;2023-04-15T18:01:14;10.10;99.90
43015;DHT22;28637;50.554;7.032;2023-04-15T18:06:14;9.90;99.90
43015;DHT22;28637;50.554;7.032;2023-04-15T18:11:16;10.00;99.90
43015;DHT22;28637;50.554;7.032;2023-04-15T18:16:18;10.00;99.90
43015;DHT22;28637;50.554;7.032;2023-04-15T18:21:18;9.90;99.90
43015;DHT22;28637;50.554;7.032;2023-04-15T18:26:19;9.80;99.90
43015;DHT22;28637;50.554;7.032;2023-04-15T18:31:21;9.70;99.90
43015;DHT22;28637;50.554;7.032;2023-04-15T18:36:21;9.50;99.90
43015;DHT22;28637;50.554;7.032;2023-04-15T18:41:23;9.60;99.90
43015;DHT22;28637;50.554;7.032;2023-04-15T18:46:27;9.60;99.90
43015;DHT22;28637;50.554;7.032;2023-04-15T18:51:27;9.50;99.90
43015;DHT22;28637;50.554;7.032;2023-04-15T18:56:29;9.50;99.90
43015;DHT22;28637;50.554;7.032;2023-04-15T19:01:30;9.50;99.90
43015;DHT22;28637;50.554;7.032;2023-04-15T19:06:31;9.40;99.90
43015;DHT22;28637;50.554;7.032;2023-04-15T19:11:32;9.40;99.90
43015;DHT22;28637;50.554;7.032;2023-04-15T19:16:32;9.40;99.90
43015;DHT22;28637;50.554;7.032;2023-04-15T19:21:33;9.40;99.90
43015;DHT22;28637;50.554;7.032;2023-04-15T19:26:35;9.40;99.90
43015;DHT22;28637;50.554;7.032;2023-04-15T19:31:36;9.30;99.90
43015;DHT22;28637;50.554;7.032;2023-04-15T19:36:36;9.20;99.90
43015;DHT22;28637;50.554;7.032;2023-04-15T19:41:37;9.10;99.90
43015;DHT22;28637;50.554;7.032;2023-04-15T19:46:41;9.10;99.90
43015;DHT22;28637;50.554;7.032;2023-04-15T19:51:44;9.10;99.90
43015;DHT22;28637;50.554;7.032;2023-04-15T19:56:44;9.10;99.90
43015;DHT22;28637;50.554;7.032;2023-04-15T20:01:45;9.10;99.90
43015;DHT22;28637;50.554;7.032;2023-04-15T20:06:46;9.10;99.90
43015;DHT22;28637;50.554;7.032;2023-04-15T20:11:47;9.00;99.90
43015;DHT22;28637;50.554;7.032;2023-04-15T20:16:47;8.80;99.90
43015;DHT22;28637;50.554;7.032;2023-04-15T20:21:48;8.80;99.90
43015;DHT22;28637;50.554;7.032;2023-04-15T20:26:48;8.70;99.90
43015;DHT22;28637;50.554;7.032;2023-04-15T20:31:49;8.70;99.90
43015;DHT22;28637;50.554;7.032;2023-04-15T20:36:50;8.80;99.90
43015;DHT22;28637;50.554;7.032;2023-04-15T20:41:50;8.70;99.90
43015;DHT22;28637;50.554;7.032;2023-04-15T20:46:51;8.60;99.90
43015;DHT22;28637;50.554;7.032;2023-04-15T20:51:52;8.50;99.90
43015;DHT22;28637;50.554;7.032;2023-04-15T20:56:52;8.50;99.90
43015;DHT22;28637;50.554;7.032;2023-04-15T21:01:53;8.50;99.90
43015;DHT22;28637;50.554;7.032;2023-04-15T21:06:56;8.50;99.90
43015;DHT22;28637;50.554;7.032;2023-04-15T21:11:56;8.50;99.90
43015;DHT22;28637;50.554;7.032;2023-04-15T21:16:57;8.40;99.90
43015;DHT22;28637;50.554;7.032;2023-04-15T21:21:58;8.30;99.90
43015;DHT22;28637;50.554;7.032;2023-04-15T21:26:59;8.30;99.90
43015;DHT22;28637;50.554;7.032;2023-04-15T21:32:01;8.30;99.90
43015;DHT22;28637;50.554;7.032;2023-04-15T21:37:01;8.20;99.90
43015;DHT22;28637;50.554;7.032;2023-04-15T21:42:02;8.10;99.90
43015;DHT22;28637;50.554;7.032;2023-04-15T21:47:03;8.20;99.90
43015;DHT22;28637;50.554;7.032;2023-04-15T21:52:03;8.10;99.90
43015;DHT22;28637;50.554;7.032;2023-04-15T21:57:04;8.20;99.90
43015;DHT22;28637;50.554;7.032;2023-04-15T22:02:05;8.20;99.90
43015;DHT22;28637;50.554;7.032;2023-04-15T22:07:05;8.10;99.90
43015;DHT22;28637;50.554;7.032;2023-04-15T22:12:06;8.10;99.90
43015;DHT22;28637;50.554;7.032;2023-04-15T22:17:07;8.10;99.90
43015;DHT22;28637;50.554;7.032;2023-04-15T22:22:07;8.00;99.90
43015;DHT22;28637;50.554;7.032;2023-04-15T22:27:08;8.00;99.90
43015;DHT22;28637;50.554;7.032;2023-04-15T22:32:09;8.10;99.90
43015;DHT22;28637;50.554;7.032;2023-04-15T22:37:09;8.10;99.90
43015;DHT22;28637;50.554;7.032;2023-04-15T22:42:11;8.10;99.90
43015;DHT22;28637;50.554;7.032;2023-04-15T22:47:11;8.20;99.90
43015;DHT22;28637;50.554;7.032;2023-04-15T22:52:12;8.30;99.90
43015;DHT22;28637;50.554;7.032;2023-04-15T22:57:13;8.30;99.90
43015;DHT22;28637;50.554;7.032;2023-04-15T23:02:13;8.30;99.90
43015;DHT22;28637;50.554;7.032;2023-04-15T23:07:14;8.20;99.90
43015;DHT22;28637;50.554;7.032;2023-04-15T23:12:15;8.30;99.90
43015;DHT22;28637;50.554;7.032;2023-04-15T23:17:15;8.20;99.90
43015;DHT22;28637;50.554;7.032;2023-04-15T23:22:17;8.10;99.90
43015;DHT22;28637;50.554;7.032;2023-04-15T23:27:17;8.10;99.90
43015;DHT22;28637;50.554;7.032;2023-04-15T23:32:18;8.20;99.90
43015;DHT22;28637;50.554;7.032;2023-04-15T23:37:19;8.20;99.90
43015;DHT22;28637;50.554;7.032;2023-04-15T23:42:20;8.10;99.90
43015;DHT22;28637;50.554;7.032;2023-04-15T23:47:21;8.10;99.90
43015;DHT22;28637;50.554;7.032;2023-04-15T23:52:23;8.10;99.90
43015;DHT22;28637;50.554;7.032;2023-04-15T23:57:23;8.10;99.90
